sensor_id;sensor_type;location;lat;lon;timestamp;pressure;altitude;pressure_sealevel;temperature;humidity
6413;BME280;3239;48.714;9.472;2022-08-19T00:01:56;98352.03;;;20.34;100.00
6413;BME280;3239;48.714;9.472;2022-08-19T00:04:35;98350.59;;;20.33;100.00
6413;BME280;3239;48.714;9.472;2022-08-19T00:07:04;98358.66;;;20.39;100.00
6413;BME280;3239;48.714;9.472;2022-08-19T00:09:30;98359.22;;;20.37;100.00
6413;BME280;3239;48.714;9.472;2022-08-19T00:11:58;98360.13;;;20.30;100.00
6413;BME280;3239;48.714;9.472;2022-08-19T00:14:25;98368.16;;;20.36;100.00
6413;BME280;3239;48.714;9.472;2022-08-19T00:16:53;98364.78;;;20.37;100.00
6413;BME280;3239;48.714;9.472;2022-08-19T00:19:20;98345.59;;;20.32;100.00
6413;BME280;3239;48.714;9.472;2022-08-19T00:21:46;98343.56;;;20.32;100.00
6413;BME280;3239;48.714;9.472;2022-08-19T00:24:14;98340.78;;;20.32;100.00
6413;BME280;3239;48.714;9.472;2022-08-19T00:26:42;98324.22;;;20.25;100.00
6413;BME280;3239;48.714;9.472;2022-08-19T00:29:11;98309.13;;;20.18;100.00
6413;BME280;3239;48.714;9.472;2022-08-19T00:31:38;98292.91;;;20.15;100.00
6413;BME280;3239;48.714;9.472;2022-08-19T00:34:04;98287.19;;;20.13;100.00
6413;BME280;3239;48.714;9.472;2022-08-19T00:36:30;98272.84;;;20.07;100.00
6413;BME280;3239;48.714;9.472;2022-08-19T00:38:58;98268.59;;;20.06;100.00
6413;BME280;3239;48.714;9.472;2022-08-19T00:41:25;98267.84;;;19.96;100.00
6413;BME280;3239;48.714;9.472;2022-08-19T00:44:06;98281.00;;;19.95;100.00
6413;BME280;3239;48.714;9.472;2022-08-19T00:46:35;98277.22;;;19.91;100.00
6413;BME280;3239;48.714;9.472;2022-08-19T00:49:14;98274.28;;;19.89;100.00
6413;BME280;3239;48.714;9.472;2022-08-19T00:51:42;98281.59;;;19.84;100.00
6413;BME280;3239;48.714;9.472;2022-08-19T00:54:10;98272.25;;;19.80;100.00
6413;BME280;3239;48.714;9.472;2022-08-19T00:56:36;98276.31;;;19.79;100.00
6413;BME280;3239;48.714;9.472;2022-08-19T00:59:04;98277.50;;;19.85;100.00
6413;BME280;3239;48.714;9.472;2022-08-19T01:01:38;98288.47;;;19.83;100.00
6413;BME280;3239;48.714;9.472;2022-08-19T01:04:05;98291.09;;;19.81;100.00
6413;BME280;3239;48.714;9.472;2022-08-19T01:06:33;98295.50;;;19.84;100.00
6413;BME280;3239;48.714;9.472;2022-08-19T01:08:59;98306.03;;;19.86;100.00
6413;BME280;3239;48.714;9.472;2022-08-19T01:11:27;98319.50;;;19.89;100.00
6413;BME280;3239;48.714;9.472;2022-08-19T01:13:55;98323.44;;;19.86;100.00
6413;BME280;3239;48.714;9.472;2022-08-19T01:16:25;98329.16;;;19.88;100.00
6413;BME280;3239;48.714;9.472;2022-08-19T01:18:52;98337.22;;;19.84;100.00
6413;BME280;3239;48.714;9.472;2022-08-19T01:24:25;98338.53;;;19.93;100.00
6413;BME280;3239;48.714;9.472;2022-08-19T01:26:51;98349.53;;;19.91;100.00
6413;BME280;3239;48.714;9.472;2022-08-19T01:29:17;98344.41;;;19.87;100.00
6413;BME280;3239;48.714;9.472;2022-08-19T01:31:43;98353.91;;;19.84;100.00
6413;BME280;3239;48.714;9.472;2022-08-19T01:34:09;98350.09;;;19.89;100.00
6413;BME280;3239;48.714;9.472;2022-08-19T01:36:43;98352.56;;;19.85;100.00
6413;BME280;3239;48.714;9.472;2022-08-19T01:39:24;98358.88;;;19.86;100.00
6413;BME280;3239;48.714;9.472;2022-08-19T01:41:50;98362.38;;;19.86;100.00
6413;BME280;3239;48.714;9.472;2022-08-19T01:44:20;98368.69;;;19.87;100.00
6413;BME280;3239;48.714;9.472;2022-08-19T01:46:50;98365.59;;;19.92;100.00
6413;BME280;3239;48.714;9.472;2022-08-19T01:49:20;98367.22;;;19.95;100.00
6413;BME280;3239;48.714;9.472;2022-08-19T01:51:48;98368.38;;;19.92;100.00
6413;BME280;3239;48.714;9.472;2022-08-19T01:54:15;98362.81;;;19.92;100.00
6413;BME280;3239;48.714;9.472;2022-08-19T01:56:41;98364.31;;;19.93;100.00
6413;BME280;3239;48.714;9.472;2022-08-19T01:59:13;98370.44;;;19.92;100.00
6413;BME280;3239;48.714;9.472;2022-08-19T02:01:40;98377.31;;;19.91;100.00
6413;BME280;3239;48.714;9.472;2022-08-19T02:04:07;98365.75;;;19.85;100.00
6413;BME280;3239;48.714;9.472;2022-08-19T02:06:33;98379.94;;;19.89;100.00
6413;BME280;3239;48.714;9.472;2022-08-19T02:08:59;98379.22;;;19.88;100.00
6413;BME280;3239;48.714;9.472;2022-08-19T02:11:33;98381.84;;;19.86;100.00
6413;BME280;3239;48.714;9.472;2022-08-19T02:14:02;98382.44;;;19.85;100.00
6413;BME280;3239;48.714;9.472;2022-08-19T02:16:28;98390.19;;;19.86;100.00
6413;BME280;3239;48.714;9.472;2022-08-19T02:18:54;98393.56;;;19.85;100.00
6413;BME280;3239;48.714;9.472;2022-08-19T02:21:22;98406.47;;;19.90;100.00
6413;BME280;3239;48.714;9.472;2022-08-19T02:23:49;98406.72;;;19.84;100.00
6413;BME280;3239;48.714;9.472;2022-08-19T02:26:16;98411.53;;;19.84;100.00
6413;BME280;3239;48.714;9.472;2022-08-19T02:28:42;98411.53;;;19.84;100.00
6413;BME280;3239;48.714;9.472;2022-08-19T02:31:21;98421.19;;;19.83;100.00
6413;BME280;3239;48.714;9.472;2022-08-19T02:33:48;98414.19;;;19.82;100.00
6413;BME280;3239;48.714;9.472;2022-08-19T02:36:16;98420.63;;;19.84;100.00
6413;BME280;3239;48.714;9.472;2022-08-19T02:38:45;98418.13;;;19.79;100.00
6413;BME280;3239;48.714;9.472;2022-08-19T02:41:22;98417.41;;;19.78;100.00
6413;BME280;3239;48.714;9.472;2022-08-19T02:43:49;98415.94;;;19.77;100.00
6413;BME280;3239;48.714;9.472;2022-08-19T02:46:27;98421.91;;;19.74;100.00
6413;BME280;3239;48.714;9.472;2022-08-19T02:48:58;98412.69;;;19.71;100.00
6413;BME280;3239;48.714;9.472;2022-08-19T02:51:30;98416.63;;;19.68;100.00
6413;BME280;3239;48.714;9.472;2022-08-19T02:53:57;98415.88;;;19.68;100.00
6413;BME280;3239;48.714;9.472;2022-08-19T02:56:24;98414.84;;;19.63;100.00
6413;BME280;3239;48.714;9.472;2022-08-19T02:58:56;98423.19;;;19.63;100.00
6413;BME280;3239;48.714;9.472;2022-08-19T03:01:31;98425.66;;;19.59;100.00
6413;BME280;3239;48.714;9.472;2022-08-19T03:04:00;98420.38;;;19.54;100.00
6413;BME280;3239;48.714;9.472;2022-08-19T03:06:28;98424.78;;;19.57;100.00
6413;BME280;3239;48.714;9.472;2022-08-19T03:08:54;98442.91;;;19.58;100.00
6413;BME280;3239;48.714;9.472;2022-08-19T03:11:28;98431.63;;;19.46;100.00
6413;BME280;3239;48.714;9.472;2022-08-19T03:13:56;98434.97;;;19.45;100.00
6413;BME280;3239;48.714;9.472;2022-08-19T03:16:26;98428.09;;;19.46;100.00
6413;BME280;3239;48.714;9.472;2022-08-19T03:18:56;98438.50;;;19.45;100.00
6413;BME280;3239;48.714;9.472;2022-08-19T03:21:30;98441.97;;;19.46;100.00
6413;BME280;3239;48.714;9.472;2022-08-19T03:24:00;98443.88;;;19.43;100.00
6413;BME280;3239;48.714;9.472;2022-08-19T03:26:26;98445.94;;;19.43;100.00
6413;BME280;3239;48.714;9.472;2022-08-19T03:28:51;98459.09;;;19.42;100.00
6413;BME280;3239;48.714;9.472;2022-08-19T03:31:20;98461.72;;;19.40;100.00
6413;BME280;3239;48.714;9.472;2022-08-19T03:33:49;98470.78;;;19.41;100.00
6413;BME280;3239;48.714;9.472;2022-08-19T03:36:25;98469.44;;;19.42;100.00
6413;BME280;3239;48.714;9.472;2022-08-19T03:38:59;98475.75;;;19.42;100.00
6413;BME280;3239;48.714;9.472;2022-08-19T03:41:29;98475.44;;;19.38;100.00
6413;BME280;3239;48.714;9.472;2022-08-19T03:43:56;98464.31;;;19.38;100.00
6413;BME280;3239;48.714;9.472;2022-08-19T03:46:29;98458.63;;;19.36;100.00
6413;BME280;3239;48.714;9.472;2022-08-19T03:48:57;98457.16;;;19.35;100.00
6413;BME280;3239;48.714;9.472;2022-08-19T03:51:32;98463.44;;;19.36;100.00
6413;BME280;3239;48.714;9.472;2022-08-19T03:54:02;98466.78;;;19.34;100.00
6413;BME280;3239;48.714;9.472;2022-08-19T03:56:29;98469.25;;;19.30;100.00
6413;BME280;3239;48.714;9.472;2022-08-19T03:58:57;98471.47;;;19.32;100.00
6413;BME280;3239;48.714;9.472;2022-08-19T04:01:27;98469.25;;;19.30;100.00
6413;BME280;3239;48.714;9.472;2022-08-19T04:03:57;98477.03;;;19.32;100.00
6413;BME280;3239;48.714;9.472;2022-08-19T04:06:30;98472.03;;;19.30;100.00
6413;BME280;3239;48.714;9.472;2022-08-19T04:08:59;98475.72;;;19.33;100.00
6413;BME280;3239;48.714;9.472;2022-08-19T04:11:41;98461.66;;;19.31;100.00
6413;BME280;3239;48.714;9.472;2022-08-19T04:14:11;98467.94;;;19.31;100.00
6413;BME280;3239;48.714;9.472;2022-08-19T04:16:38;98447.59;;;19.29;100.00
6413;BME280;3239;48.714;9.472;2022-08-19T04:19:05;98453.91;;;19.29;100.00
6413;BME280;3239;48.714;9.472;2022-08-19T04:21:32;98443.94;;;19.26;100.00
6413;BME280;3239;48.714;9.472;2022-08-19T04:23:59;98443.19;;;19.26;100.00
6413;BME280;3239;48.714;9.472;2022-08-19T04:26:30;98450.81;;;19.25;100.00
6413;BME280;3239;48.714;9.472;2022-08-19T04:29:09;98440.00;;;19.29;100.00
6413;BME280;3239;48.714;9.472;2022-08-19T04:31:36;98436.19;;;19.25;100.00
6413;BME280;3239;48.714;9.472;2022-08-19T04:34:07;98440.84;;;19.22;100.00
6413;BME280;3239;48.714;9.472;2022-08-19T04:36:36;98441.38;;;19.21;100.00
6413;BME280;3239;48.714;9.472;2022-08-19T04:39:08;98441.34;;;19.11;100.00
6413;BME280;3239;48.714;9.472;2022-08-19T04:41:37;98449.25;;;19.15;100.00
6413;BME280;3239;48.714;9.472;2022-08-19T04:44:22;98448.66;;;19.16;100.00
6413;BME280;3239;48.714;9.472;2022-08-19T04:46:50;98451.94;;;19.22;100.00
6413;BME280;3239;48.714;9.472;2022-08-19T04:49:19;98457.69;;;19.24;100.00
6413;BME280;3239;48.714;9.472;2022-08-19T04:51:48;98454.16;;;19.24;100.00
6413;BME280;3239;48.714;9.472;2022-08-19T04:54:16;98466.66;;;19.15;100.00
6413;BME280;3239;48.714;9.472;2022-08-19T04:56:42;98478.00;;;19.10;100.00
6413;BME280;3239;48.714;9.472;2022-08-19T04:59:09;98488.81;;;19.06;100.00
6413;BME280;3239;48.714;9.472;2022-08-19T05:01:36;98499.84;;;18.96;100.00
6413;BME280;3239;48.714;9.472;2022-08-19T05:04:04;98515.53;;;18.84;100.00
6413;BME280;3239;48.714;9.472;2022-08-19T05:06:32;98533.41;;;18.91;100.00
6413;BME280;3239;48.714;9.472;2022-08-19T05:09:02;98548.19;;;18.93;100.00
6413;BME280;3239;48.714;9.472;2022-08-19T05:11:32;98560.69;;;19.02;100.00
6413;BME280;3239;48.714;9.472;2022-08-19T05:13:59;98570.81;;;19.07;100.00
6413;BME280;3239;48.714;9.472;2022-08-19T05:16:26;98571.72;;;19.09;100.00
6413;BME280;3239;48.714;9.472;2022-08-19T05:18:53;98582.84;;;19.09;100.00
6413;BME280;3239;48.714;9.472;2022-08-19T05:21:40;98592.78;;;19.12;100.00
6413;BME280;3239;48.714;9.472;2022-08-19T05:24:27;98599.09;;;19.13;100.00
6413;BME280;3239;48.714;9.472;2022-08-19T05:26:55;98598.53;;;19.14;100.00
6413;BME280;3239;48.714;9.472;2022-08-19T05:29:27;98609.63;;;19.14;100.00
6413;BME280;3239;48.714;9.472;2022-08-19T05:31:54;98607.25;;;19.11;100.00
6413;BME280;3239;48.714;9.472;2022-08-19T05:34:23;98613.53;;;19.11;100.00
6413;BME280;3239;48.714;9.472;2022-08-19T05:36:55;98628.47;;;19.16;100.00
6413;BME280;3239;48.714;9.472;2022-08-19T05:39:28;98633.88;;;19.14;100.00
6413;BME280;3239;48.714;9.472;2022-08-19T05:41:59;98629.22;;;19.16;100.00
6413;BME280;3239;48.714;9.472;2022-08-19T05:44:27;98626.03;;;19.20;100.00
6413;BME280;3239;48.714;9.472;2022-08-19T05:47:00;98621.22;;;19.20;100.00
6413;BME280;3239;48.714;9.472;2022-08-19T05:49:27;98621.41;;;19.22;100.00
6413;BME280;3239;48.714;9.472;2022-08-19T05:51:54;98617.31;;;19.23;100.00
6413;BME280;3239;48.714;9.472;2022-08-19T05:54:22;98615.50;;;19.18;100.00
6413;BME280;3239;48.714;9.472;2022-08-19T05:56:52;98606.19;;;19.23;100.00
6413;BME280;3239;48.714;9.472;2022-08-19T05:59:19;98599.97;;;19.15;100.00
6413;BME280;3239;48.714;9.472;2022-08-19T06:01:48;98599.00;;;19.20;100.00
6413;BME280;3239;48.714;9.472;2022-08-19T06:04:19;98597.06;;;19.30;100.00
6413;BME280;3239;48.714;9.472;2022-08-19T06:06:47;98587.50;;;19.24;100.00
6413;BME280;3239;48.714;9.472;2022-08-19T06:09:14;98590.75;;;19.30;100.00
6413;BME280;3239;48.714;9.472;2022-08-19T06:11:45;98590.44;;;19.26;100.00
6413;BME280;3239;48.714;9.472;2022-08-19T06:14:18;98589.44;;;19.14;100.00
6413;BME280;3239;48.714;9.472;2022-08-19T06:16:45;98594.00;;;19.19;100.00
6413;BME280;3239;48.714;9.472;2022-08-19T06:19:15;98594.09;;;19.28;100.00
6413;BME280;3239;48.714;9.472;2022-08-19T06:21:45;98590.09;;;19.39;100.00
6413;BME280;3239;48.714;9.472;2022-08-19T06:24:18;98590.44;;;19.26;100.00
6413;BME280;3239;48.714;9.472;2022-08-19T06:26:50;98599.94;;;19.23;100.00
6413;BME280;3239;48.714;9.472;2022-08-19T06:29:21;98599.00;;;19.20;100.00
6413;BME280;3239;48.714;9.472;2022-08-19T06:31:58;98610.63;;;19.26;100.00
6413;BME280;3239;48.714;9.472;2022-08-19T06:34:25;98626.81;;;19.37;100.00
6413;BME280;3239;48.714;9.472;2022-08-19T06:36:54;98633.03;;;19.45;100.00
6413;BME280;3239;48.714;9.472;2022-08-19T06:39:26;98635.53;;;19.51;100.00
6413;BME280;3239;48.714;9.472;2022-08-19T06:41:56;98635.72;;;19.53;100.00
6413;BME280;3239;48.714;9.472;2022-08-19T06:44:24;98635.44;;;19.58;100.00
6413;BME280;3239;48.714;9.472;2022-08-19T06:46:53;98623.91;;;19.62;100.00
6413;BME280;3239;48.714;9.472;2022-08-19T06:49:19;98627.59;;;19.64;100.00
6413;BME280;3239;48.714;9.472;2022-08-19T06:51:47;98613.69;;;19.64;100.00
6413;BME280;3239;48.714;9.472;2022-08-19T06:54:15;98599.22;;;19.66;100.00
6413;BME280;3239;48.714;9.472;2022-08-19T06:56:42;98581.97;;;19.67;100.00
6413;BME280;3239;48.714;9.472;2022-08-19T06:59:17;98566.47;;;19.74;100.00
6413;BME280;3239;48.714;9.472;2022-08-19T07:01:51;98544.56;;;19.78;100.00
6413;BME280;3239;48.714;9.472;2022-08-19T07:04:25;98512.50;;;19.77;100.00
6413;BME280;3239;48.714;9.472;2022-08-19T07:07:06;98492.47;;;19.78;100.00
6413;BME280;3239;48.714;9.472;2022-08-19T07:09:35;98464.66;;;19.78;100.00
6413;BME280;3239;48.714;9.472;2022-08-19T07:12:05;98460.41;;;19.77;100.00
6413;BME280;3239;48.714;9.472;2022-08-19T07:14:33;98441.25;;;19.81;100.00
6413;BME280;3239;48.714;9.472;2022-08-19T07:17:04;98445.78;;;19.77;100.00
6413;BME280;3239;48.714;9.472;2022-08-19T07:19:31;98447.41;;;19.80;100.00
6413;BME280;3239;48.714;9.472;2022-08-19T07:22:00;98451.47;;;19.79;100.00
6413;BME280;3239;48.714;9.472;2022-08-19T07:24:30;98447.66;;;19.74;100.00
6413;BME280;3239;48.714;9.472;2022-08-19T07:26:59;98453.38;;;19.76;100.00
6413;BME280;3239;48.714;9.472;2022-08-19T07:29:29;98461.88;;;19.78;100.00
6413;BME280;3239;48.714;9.472;2022-08-19T07:31:57;98465.25;;;19.77;100.00
6413;BME280;3239;48.714;9.472;2022-08-19T07:34:25;98467.63;;;19.90;100.00
6413;BME280;3239;48.714;9.472;2022-08-19T07:36:53;98436.13;;;19.78;100.00
6413;BME280;3239;48.714;9.472;2022-08-19T07:39:29;98443.75;;;19.77;100.00
6413;BME280;3239;48.714;9.472;2022-08-19T07:41:57;98436.53;;;19.74;100.00
6413;BME280;3239;48.714;9.472;2022-08-19T07:44:23;98435.97;;;19.76;100.00
6413;BME280;3239;48.714;9.472;2022-08-19T07:46:54;98446.91;;;19.74;100.00
6413;BME280;3239;48.714;9.472;2022-08-19T07:49:22;98446.66;;;19.79;100.00
6413;BME280;3239;48.714;9.472;2022-08-19T07:51:58;98437.28;;;19.75;100.00
6413;BME280;3239;48.714;9.472;2022-08-19T07:54:31;98436.84;;;19.78;100.00
6413;BME280;3239;48.714;9.472;2022-08-19T07:57:00;98445.78;;;19.77;100.00
6413;BME280;3239;48.714;9.472;2022-08-19T07:59:26;98454.09;;;19.67;100.00
6413;BME280;3239;48.714;9.472;2022-08-19T08:01:55;98465.19;;;19.67;100.00
6413;BME280;3239;48.714;9.472;2022-08-19T08:04:21;98466.66;;;19.68;100.00
6413;BME280;3239;48.714;9.472;2022-08-19T08:07:06;98478.47;;;19.59;100.00
6413;BME280;3239;48.714;9.472;2022-08-19T08:09:53;98487.13;;;19.63;100.00
6413;BME280;3239;48.714;9.472;2022-08-19T08:12:24;98483.91;;;19.67;100.00
6413;BME280;3239;48.714;9.472;2022-08-19T08:14:57;98477.94;;;19.70;100.00
6413;BME280;3239;48.714;9.472;2022-08-19T08:17:26;98484.84;;;19.79;100.00
6413;BME280;3239;48.714;9.472;2022-08-19T08:19:53;98484.81;;;19.69;100.00
6413;BME280;3239;48.714;9.472;2022-08-19T08:22:21;98481.00;;;19.65;100.00
6413;BME280;3239;48.714;9.472;2022-08-19T08:25:13;98472.03;;;19.57;100.00
6413;BME280;3239;48.714;9.472;2022-08-19T08:27:42;98482.31;;;19.64;100.00
6413;BME280;3239;48.714;9.472;2022-08-19T08:30:16;98470.88;;;19.60;100.00
6413;BME280;3239;48.714;9.472;2022-08-19T08:32:42;98469.13;;;19.64;100.00
6413;BME280;3239;48.714;9.472;2022-08-19T08:35:12;98473.88;;;19.71;100.00
6413;BME280;3239;48.714;9.472;2022-08-19T08:37:38;98468.31;;;19.71;100.00
6413;BME280;3239;48.714;9.472;2022-08-19T08:40:27;98451.00;;;19.63;100.00
6413;BME280;3239;48.714;9.472;2022-08-19T08:43:38;98451.44;;;19.69;100.00
6413;BME280;3239;48.714;9.472;2022-08-19T08:46:30;98449.59;;;19.81;100.00
6413;BME280;3239;48.714;9.472;2022-08-19T08:51:52;98441.44;;;19.93;100.00
6413;BME280;3239;48.714;9.472;2022-08-19T08:54:24;98434.00;;;20.05;100.00
6413;BME280;3239;48.714;9.472;2022-08-19T08:56:53;98430.44;;;19.95;100.00
6413;BME280;3239;48.714;9.472;2022-08-19T08:59:33;98435.59;;;19.98;100.00
6413;BME280;3239;48.714;9.472;2022-08-19T09:02:00;98428.22;;;19.84;100.00
6413;BME280;3239;48.714;9.472;2022-08-19T09:04:27;98430.28;;;19.83;100.00
6413;BME280;3239;48.714;9.472;2022-08-19T09:09:48;98453.34;;;19.67;100.00
6413;BME280;3239;48.714;9.472;2022-08-19T09:15:22;98470.31;;;19.61;100.00
6413;BME280;3239;48.714;9.472;2022-08-19T09:17:52;98478.81;;;19.73;100.00
6413;BME280;3239;48.714;9.472;2022-08-19T09:20:23;98494.81;;;19.82;100.00
6413;BME280;3239;48.714;9.472;2022-08-19T09:22:49;98501.38;;;19.77;100.00
6413;BME280;3239;48.714;9.472;2022-08-19T09:25:19;98515.91;;;19.85;100.00
6413;BME280;3239;48.714;9.472;2022-08-19T09:27:50;98514.06;;;19.97;100.00
6413;BME280;3239;48.714;9.472;2022-08-19T09:30:24;98514.50;;;20.03;100.00
6413;BME280;3239;48.714;9.472;2022-08-19T09:32:51;98519.66;;;20.06;100.00
6413;BME280;3239;48.714;9.472;2022-08-19T09:35:21;98519.09;;;20.08;100.00
6413;BME280;3239;48.714;9.472;2022-08-19T09:37:49;98523.59;;;20.03;100.00
6413;BME280;3239;48.714;9.472;2022-08-19T09:40:16;98530.53;;;20.12;100.00
6413;BME280;3239;48.714;9.472;2022-08-19T09:42:46;98520.06;;;19.93;100.00
6413;BME280;3239;48.714;9.472;2022-08-19T09:45:18;98522.50;;;19.89;100.00
6413;BME280;3239;48.714;9.472;2022-08-19T09:47:46;98527.41;;;19.72;100.00
6413;BME280;3239;48.714;9.472;2022-08-19T09:50:12;98533.97;;;19.67;100.00
6413;BME280;3239;48.714;9.472;2022-08-19T09:52:39;98544.50;;;19.68;100.00
6413;BME280;3239;48.714;9.472;2022-08-19T09:55:06;98556.72;;;19.56;100.00
6413;BME280;3239;48.714;9.472;2022-08-19T09:57:33;98581.13;;;19.48;100.00
6413;BME280;3239;48.714;9.472;2022-08-19T10:00:01;98586.88;;;19.59;100.00
6413;BME280;3239;48.714;9.472;2022-08-19T10:02:26;98596.00;;;19.69;100.00
6413;BME280;3239;48.714;9.472;2022-08-19T10:04:52;98607.13;;;19.69;100.00
6413;BME280;3239;48.714;9.472;2022-08-19T10:07:37;98604.03;;;19.65;100.00
6413;BME280;3239;48.714;9.472;2022-08-19T10:10:06;98609.91;;;19.69;100.00
6413;BME280;3239;48.714;9.472;2022-08-19T10:12:34;98610.75;;;19.62;100.00
6413;BME280;3239;48.714;9.472;2022-08-19T10:15:00;98619.56;;;19.68;100.00
6413;BME280;3239;48.714;9.472;2022-08-19T10:17:26;98630.19;;;19.79;100.00
6413;BME280;3239;48.714;9.472;2022-08-19T10:19:52;98615.03;;;19.90;100.00
6413;BME280;3239;48.714;9.472;2022-08-19T10:22:19;98617.13;;;19.99;100.00
6413;BME280;3239;48.714;9.472;2022-08-19T10:24:48;98609.94;;;19.96;100.00
6413;BME280;3239;48.714;9.472;2022-08-19T10:27:14;98607.94;;;20.06;100.00
6413;BME280;3239;48.714;9.472;2022-08-19T10:29:40;98609.84;;;20.03;100.00
6413;BME280;3239;48.714;9.472;2022-08-19T10:32:08;98597.91;;;19.67;100.00
6413;BME280;3239;48.714;9.472;2022-08-19T10:34:36;98593.88;;;19.77;100.00
6413;BME280;3239;48.714;9.472;2022-08-19T10:37:04;98598.75;;;19.86;100.00
6413;BME280;3239;48.714;9.472;2022-08-19T10:39:33;98612.75;;;20.05;100.00
6413;BME280;3239;48.714;9.472;2022-08-19T10:42:06;98601.31;;;20.01;100.00
6413;BME280;3239;48.714;9.472;2022-08-19T10:44:33;98603.09;;;20.06;100.00
6413;BME280;3239;48.714;9.472;2022-08-19T10:47:02;98602.22;;;20.04;100.00
6413;BME280;3239;48.714;9.472;2022-08-19T10:49:28;98612.22;;;20.07;100.00
6413;BME280;3239;48.714;9.472;2022-08-19T10:51:55;98594.53;;;19.95;100.00
6413;BME280;3239;48.714;9.472;2022-08-19T10:54:40;98605.53;;;19.93;100.00
6413;BME280;3239;48.714;9.472;2022-08-19T10:57:44;98596.50;;;19.75;100.00
6413;BME280;3239;48.714;9.472;2022-08-19T11:00:11;98596.59;;;19.68;100.00
6413;BME280;3239;48.714;9.472;2022-08-19T11:02:37;98605.00;;;19.77;100.00
6413;BME280;3239;48.714;9.472;2022-08-19T11:05:04;98616.03;;;19.85;100.00
6413;BME280;3239;48.714;9.472;2022-08-19T11:07:30;98631.81;;;19.82;100.00
6413;BME280;3239;48.714;9.472;2022-08-19T11:09:56;98631.28;;;19.93;100.00
6413;BME280;3239;48.714;9.472;2022-08-19T11:12:22;98629.41;;;19.96;100.00
6413;BME280;3239;48.714;9.472;2022-08-19T11:14:48;98626.81;;;19.81;100.00
6413;BME280;3239;48.714;9.472;2022-08-19T11:17:15;98626.22;;;19.56;100.00
6413;BME280;3239;48.714;9.472;2022-08-19T11:19:41;98634.47;;;19.46;100.00
6413;BME280;3239;48.714;9.472;2022-08-19T11:22:09;98654.59;;;19.37;100.00
6413;BME280;3239;48.714;9.472;2022-08-19T11:24:35;98660.47;;;19.24;100.00
6413;BME280;3239;48.714;9.472;2022-08-19T11:27:08;98670.44;;;19.27;100.00
6413;BME280;3239;48.714;9.472;2022-08-19T11:29:37;98675.09;;;19.42;100.00
6413;BME280;3239;48.714;9.472;2022-08-19T11:32:07;98693.19;;;19.50;100.00
6413;BME280;3239;48.714;9.472;2022-08-19T11:34:38;98696.03;;;19.43;100.00
6413;BME280;3239;48.714;9.472;2022-08-19T11:37:05;98703.28;;;19.55;100.00
6413;BME280;3239;48.714;9.472;2022-08-19T11:39:33;98719.72;;;19.78;100.00
6413;BME280;3239;48.714;9.472;2022-08-19T11:42:00;98714.25;;;19.87;100.00
6413;BME280;3239;48.714;9.472;2022-08-19T11:44:28;98710.41;;;19.83;100.00
6413;BME280;3239;48.714;9.472;2022-08-19T11:46:56;98700.44;;;19.80;100.00
6413;BME280;3239;48.714;9.472;2022-08-19T11:49:23;98698.41;;;19.63;100.00
6413;BME280;3239;48.714;9.472;2022-08-19T11:51:49;98694.16;;;19.45;100.00
6413;BME280;3239;48.714;9.472;2022-08-19T11:54:17;98712.22;;;19.54;100.00
6413;BME280;3239;48.714;9.472;2022-08-19T11:56:44;98723.81;;;19.60;100.00
6413;BME280;3239;48.714;9.472;2022-08-19T11:59:11;98720.72;;;19.56;100.00
6413;BME280;3239;48.714;9.472;2022-08-19T12:01:37;98736.09;;;19.57;100.00
6413;BME280;3239;48.714;9.472;2022-08-19T12:04:03;98743.69;;;19.56;100.00
6413;BME280;3239;48.714;9.472;2022-08-19T12:06:32;98748.03;;;19.50;100.00
6413;BME280;3239;48.714;9.472;2022-08-19T12:09:04;98744.19;;;19.45;100.00
6413;BME280;3239;48.714;9.472;2022-08-19T12:11:30;98757.75;;;19.41;100.00
6413;BME280;3239;48.714;9.472;2022-08-19T12:13:56;98762.66;;;19.50;100.00
6413;BME280;3239;48.714;9.472;2022-08-19T12:16:27;98771.72;;;19.51;100.00
6413;BME280;3239;48.714;9.472;2022-08-19T12:18:55;98770.59;;;19.54;100.00
6413;BME280;3239;48.714;9.472;2022-08-19T12:21:25;98774.28;;;19.56;100.00
6413;BME280;3239;48.714;9.472;2022-08-19T12:23:55;98786.47;;;19.61;100.00
6413;BME280;3239;48.714;9.472;2022-08-19T12:26:23;98791.88;;;19.59;100.00
6413;BME280;3239;48.714;9.472;2022-08-19T12:28:48;98791.38;;;19.53;100.00
6413;BME280;3239;48.714;9.472;2022-08-19T12:31:15;98796.53;;;19.56;100.00
6413;BME280;3239;48.714;9.472;2022-08-19T12:33:41;98796.81;;;19.43;100.00
6413;BME280;3239;48.714;9.472;2022-08-19T12:36:11;98799.00;;;19.28;100.00
6413;BME280;3239;48.714;9.472;2022-08-19T12:38:39;98791.16;;;19.34;100.00
6413;BME280;3239;48.714;9.472;2022-08-19T12:41:08;98799.25;;;19.15;100.00
6413;BME280;3239;48.714;9.472;2022-08-19T12:43:35;98802.06;;;19.07;100.00
6413;BME280;3239;48.714;9.472;2022-08-19T12:46:02;98809.13;;;19.08;100.00
6413;BME280;3239;48.714;9.472;2022-08-19T12:48:30;98809.53;;;18.97;100.00
6413;BME280;3239;48.714;9.472;2022-08-19T12:50:56;98816.75;;;19.00;100.00
6413;BME280;3239;48.714;9.472;2022-08-19T12:53:22;98824.53;;;19.02;100.00
6413;BME280;3239;48.714;9.472;2022-08-19T12:55:55;98821.19;;;19.03;100.00
6413;BME280;3239;48.714;9.472;2022-08-19T12:58:21;98832.88;;;19.02;100.00
6413;BME280;3239;48.714;9.472;2022-08-19T13:00:47;98844.03;;;19.19;100.00
6413;BME280;3239;48.714;9.472;2022-08-19T13:03:14;98852.22;;;19.17;100.00
6413;BME280;3239;48.714;9.472;2022-08-19T13:05:41;98853.41;;;19.31;100.00
6413;BME280;3239;48.714;9.472;2022-08-19T13:08:07;98863.34;;;19.41;100.00
6413;BME280;3239;48.714;9.472;2022-08-19T13:10:36;98872.31;;;19.32;100.00
6413;BME280;3239;48.714;9.472;2022-08-19T13:13:04;98879.13;;;19.39;100.00
6413;BME280;3239;48.714;9.472;2022-08-19T13:15:35;98880.38;;;19.45;100.00
6413;BME280;3239;48.714;9.472;2022-08-19T13:18:01;98888.88;;;19.47;100.00
6413;BME280;3239;48.714;9.472;2022-08-19T13:20:27;98889.63;;;19.48;100.00
6413;BME280;3239;48.714;9.472;2022-08-19T13:22:54;98893.63;;;19.54;100.00
6413;BME280;3239;48.714;9.472;2022-08-19T13:25:20;98888.75;;;19.62;100.00
6413;BME280;3239;48.714;9.472;2022-08-19T13:27:47;98881.94;;;19.56;100.00
6413;BME280;3239;48.714;9.472;2022-08-19T13:30:15;98886.53;;;19.61;100.00
6413;BME280;3239;48.714;9.472;2022-08-19T13:33:00;98883.53;;;19.66;100.00
6413;BME280;3239;48.714;9.472;2022-08-19T13:35:47;98874.09;;;19.62;100.00